Time;durP1;ratioP1;P1;durP2;ratioP2;P2;SDS_P1;SDS_P2;PMS_P1;PMS_P2;Temp;Humidity;BMP_temperature;BMP_pressure;BME280_temperature;BME280_humidity;BME280_pressure;Samples;Min_cycle;Max_cycle;Signal;HPM_P1;HPM_P2
2023/02/23 00:01:17;;;;;;;24.53;17.87;;;;;;;9.65;61.84;95857.75;4965656;28;20464;-66
2023/02/23 00:03:44;;;;;;;24.83;18.77;;;;;;;9.67;61.84;95859.34;4967615;28;20926;-66
2023/02/23 00:06:10;;;;;;;23.33;19.27;;;;;;;9.71;61.88;95857.44;4965266;28;20591;-69
2023/02/23 00:08:36;;;;;;;25.17;20.17;;;;;;;9.70;62.64;95851.34;4973679;28;20992;-70
2023/02/23 00:11:04;;;;;;;26.53;19.03;;;;;;;9.70;61.99;95858.34;4966614;28;20464;-69
2023/02/23 00:13:31;;;;;;;24.80;19.07;;;;;;;9.72;62.64;95853.88;4960514;28;20429;-68
2023/02/23 00:15:56;;;;;;;27.30;19.37;;;;;;;9.63;62.17;95857.78;4963355;28;20426;-69
2023/02/23 00:18:21;;;;;;;24.00;18.87;;;;;;;9.69;62.49;95854.06;4949538;28;20484;-69
2023/02/23 00:20:56;;;;;;;23.97;18.30;;;;;;;9.64;62.94;95853.44;4948248;28;20206;-69
2023/02/23 00:23:23;;;;;;;24.43;18.53;;;;;;;9.56;62.58;95858.19;4948332;28;20269;-72
2023/02/23 00:25:48;;;;;;;30.00;18.93;;;;;;;9.61;63.10;95858.81;4948335;29;20506;-69
2023/02/23 00:28:14;;;;;;;41.73;19.40;;;;;;;9.61;62.58;95850.94;4958537;28;20510;-70
2023/02/23 00:30:39;;;;;;;33.53;19.90;;;;;;;9.55;63.38;95846.84;4977983;28;20573;-70
2023/02/23 00:33:04;;;;;;;29.07;18.93;;;;;;;9.61;62.59;95846.53;4967476;28;20202;-71
2023/02/23 00:35:32;;;;;;;27.23;19.43;;;;;;;9.58;62.48;95849.31;4967417;28;20173;-71
2023/02/23 00:37:57;;;;;;;30.00;19.23;;;;;;;9.52;63.51;95852.25;4966740;28;20182;-69
2023/02/23 00:40:23;;;;;;;25.37;18.53;;;;;;;9.53;62.72;95859.19;4969763;28;20467;-70
2023/02/23 00:42:51;;;;;;;26.73;19.57;;;;;;;9.54;63.49;95853.00;4970966;28;20182;-71
2023/02/23 00:45:19;;;;;;;23.67;18.87;;;;;;;9.57;62.97;95857.25;4970971;28;20437;-70
2023/02/23 00:47:44;;;;;;;26.93;17.90;;;;;;;9.51;63.55;95858.41;4970413;28;20483;-71
2023/02/23 00:50:11;;;;;;;24.20;19.17;;;;;;;9.51;63.66;95856.63;4970738;28;20468;-70
2023/02/23 00:52:39;;;;;;;24.50;18.67;;;;;;;9.47;62.92;95854.22;4970883;28;20628;-70
2023/02/23 00:55:07;;;;;;;22.50;18.80;;;;;;;9.35;63.74;95863.53;4970650;28;20792;-70
2023/02/23 00:57:33;;;;;;;23.60;18.17;;;;;;;9.37;63.14;95852.97;4970448;28;20495;-71
2023/02/23 00:59:58;;;;;;;22.77;18.10;;;;;;;9.43;63.67;95857.94;4970614;28;20429;-71
2023/02/23 01:02:24;;;;;;;26.00;19.07;;;;;;;9.37;64.21;95852.97;4970445;28;20553;-71
2023/02/23 01:04:49;;;;;;;27.37;18.97;;;;;;;9.42;63.61;95846.59;4970664;28;20182;-70
2023/02/23 01:07:15;;;;;;;26.43;18.83;;;;;;;9.49;63.04;95847.16;4970026;28;20178;-70
2023/02/23 01:09:40;;;;;;;24.57;18.60;;;;;;;9.40;63.71;95850.22;4970288;28;20609;-70
2023/02/23 01:12:06;;;;;;;26.67;19.83;;;;;;;9.50;62.98;95854.94;4970301;28;20264;-71
2023/02/23 01:14:32;;;;;;;27.83;19.10;;;;;;;9.46;63.43;95856.00;4970505;28;20213;-69
2023/02/23 01:16:58;;;;;;;27.50;19.43;;;;;;;9.47;64.13;95849.84;4970129;28;20224;-70
2023/02/23 01:19:23;;;;;;;27.80;19.53;;;;;;;9.45;64.19;95846.47;4970367;28;20525;-71
2023/02/23 01:21:49;;;;;;;26.70;19.10;;;;;;;9.35;63.70;95839.94;4970164;28;20441;-69
2023/02/23 01:24:14;;;;;;;23.27;17.97;;;;;;;9.41;64.51;95839.66;4970814;28;20661;-72
2023/02/23 01:26:42;;;;;;;35.13;20.17;;;;;;;9.47;64.06;95855.09;4970343;28;20657;-71
2023/02/23 01:29:16;;;;;;;23.73;19.10;;;;;;;9.46;63.75;95845.53;4970575;28;20205;-70
2023/02/23 01:31:44;;;;;;;25.83;18.53;;;;;;;9.44;64.18;95844.75;4970116;28;20460;-70
2023/02/23 01:34:11;;;;;;;24.10;19.00;;;;;;;9.59;63.50;95842.31;4970990;28;20775;-70
2023/02/23 01:36:38;;;;;;;26.20;19.80;;;;;;;9.48;64.19;95841.06;4970945;28;20787;-69
2023/02/23 01:39:06;;;;;;;26.50;18.93;;;;;;;9.46;64.45;95845.53;4971338;28;20798;-69
2023/02/23 01:41:33;;;;;;;22.00;18.10;;;;;;;9.45;64.46;95838.59;4970959;28;21044;-69
2023/02/23 01:44:30;;;;;;;24.23;19.60;;;;;;;9.42;64.00;95841.34;4971011;28;20413;-70
2023/02/23 01:46:55;;;;;;;29.63;20.83;;;;;;;9.53;63.22;95833.81;4970681;28;20984;-70
2023/02/23 01:49:25;;;;;;;33.83;19.10;;;;;;;9.54;64.03;95834.66;4969501;28;20504;-70
2023/02/23 01:51:58;;;;;;;27.07;20.40;;;;;;;9.43;64.14;95837.81;4969617;28;20198;-70
2023/02/23 01:54:30;;;;;;;22.67;18.20;;;;;;;9.41;63.88;95833.59;4970094;28;20539;-69
2023/02/23 01:56:58;;;;;;;26.67;19.10;;;;;;;9.51;63.65;95835.66;4969883;28;20419;-71
2023/02/23 01:59:36;;;;;;;23.73;18.30;;;;;;;9.36;64.05;95835.59;4970019;28;20452;-72
2023/02/23 02:02:04;;;;;;;28.53;20.50;;;;;;;9.39;64.02;95831.03;4969788;28;20428;-69
2023/02/23 02:04:42;;;;;;;23.20;18.07;;;;;;;9.37;64.29;95829.41;4970233;28;20414;-70
2023/02/23 02:07:10;;;;;;;25.40;18.07;;;;;;;9.35;64.21;95829.47;4969768;28;20404;-69
2023/02/23 02:09:38;;;;;;;24.87;18.40;;;;;;;9.35;63.92;95831.25;4969450;28;20457;-71
2023/02/23 02:12:07;;;;;;;26.03;19.50;;;;;;;9.33;64.66;95831.34;4969584;28;21096;-70
2023/02/23 02:14:34;;;;;;;25.93;19.20;;;;;;;9.34;64.05;95822.56;4969249;28;20487;-69
2023/02/23 02:17:45;;;;;;;25.63;18.07;;;;;;;9.38;63.51;95829.34;4969064;28;20419;-70
2023/02/23 02:20:31;;;;;;;26.10;18.33;;;;;;;9.30;64.45;95821.84;4969074;28;20546;-70
2023/02/23 02:23:15;;;;;;;27.60;18.87;;;;;;;9.39;63.56;95828.41;4967919;28;21047;-70
2023/02/23 02:26:08;;;;;;;26.93;18.87;;;;;;;9.37;64.22;95826.78;4968869;28;20491;-70
2023/02/23 02:29:05;;;;;;;24.77;18.07;;;;;;;9.31;64.14;95827.94;4969406;28;20436;-70
2023/02/23 02:32:14;;;;;;;39.60;20.43;;;;;;;9.36;64.14;95823.34;4953749;28;20505;-71
2023/02/23 02:34:58;;;;;;;23.47;17.77;;;;;;;9.36;64.11;95823.34;4949931;29;20947;-70
2023/02/23 02:37:32;;;;;;;20.03;16.67;;;;;;;9.36;63.41;95820.72;4949108;28;20472;-70
2023/02/23 02:40:17;;;;;;;21.40;17.17;;;;;;;9.36;63.27;95823.34;4949760;28;20468;-70
2023/02/23 02:42:54;;;;;;;25.37;17.37;;;;;;;9.34;63.11;95819.94;4950083;29;20432;-71
2023/02/23 02:45:28;;;;;;;23.40;18.20;;;;;;;9.37;63.54;95819.78;4949919;29;20971;-70
2023/02/23 02:48:17;;;;;;;23.23;16.97;;;;;;;9.36;63.69;95817.25;4949392;28;20841;-70
2023/02/23 02:50:55;;;;;;;21.73;17.03;;;;;;;9.36;63.37;95814.63;4967518;28;21271;-70
2023/02/23 02:53:51;;;;;;;26.27;17.90;;;;;;;9.31;63.63;95818.31;4967510;28;20428;-71
2023/02/23 02:56:21;;;;;;;32.73;19.27;;;;;;;9.37;63.29;95822.41;4967592;28;20464;-70
2023/02/23 02:58:48;;;;;;;58.13;19.70;;;;;;;9.36;63.57;95819.88;4968466;28;20424;-71
2023/02/23 04:18:34;;;;;;;38.20;23.90;;;;;;;9.09;68.32;95826.34;4971235;28;20456;-69
2023/02/23 04:21:01;;;;;;;28.87;19.73;;;;;;;9.09;68.37;95822.88;4971171;28;20929;-70
2023/02/23 04:23:27;;;;;;;25.60;19.30;;;;;;;9.06;67.94;95823.03;4971257;28;20417;-70
2023/02/23 04:25:53;;;;;;;28.23;22.00;;;;;;;9.05;68.07;95829.19;4971022;28;20424;-70
2023/02/23 04:28:20;;;;;;;26.80;20.47;;;;;;;9.06;69.10;95828.25;4970928;28;20539;-70
2023/02/23 04:30:46;;;;;;;27.40;20.77;;;;;;;9.13;68.73;95829.66;4961631;28;20810;-69
2023/02/23 04:33:12;;;;;;;31.70;21.07;;;;;;;9.16;68.38;95834.75;4951333;29;20420;-69
2023/02/23 04:35:38;;;;;;;35.07;22.10;;;;;;;9.10;67.69;95833.28;4966103;28;20186;-70
2023/02/23 04:38:04;;;;;;;28.27;20.70;;;;;;;8.90;68.92;95833.34;4951224;28;20500;-69
2023/02/23 04:40:29;;;;;;;37.30;21.23;;;;;;;8.82;69.72;95835.47;4951338;29;20442;-70
2023/02/23 04:42:55;;;;;;;26.43;20.33;;;;;;;8.86;69.17;95837.88;4951683;28;20189;-70
2023/02/23 04:45:22;;;;;;;36.80;20.20;;;;;;;8.89;69.16;95826.44;4951566;29;20209;-70
2023/02/23 04:47:48;;;;;;;33.70;19.93;;;;;;;8.81;68.90;95828.53;4951135;29;20265;-70
2023/02/23 04:50:14;;;;;;;24.77;19.67;;;;;;;8.74;70.31;95833.22;4951233;29;20540;-70
2023/02/23 04:52:40;;;;;;;25.47;19.07;;;;;;;8.89;69.03;95827.28;4951379;29;20198;-69
2023/02/23 04:55:07;;;;;;;46.63;24.67;;;;;;;8.91;69.16;95845.53;4951369;28;20911;-70
2023/02/23 04:57:33;;;;;;;45.03;26.70;;;;;;;8.77;69.88;95834.84;4951091;28;20414;-69
2023/02/23 04:59:58;;;;;;;47.73;24.90;;;;;;;8.77;69.94;95832.22;4951410;28;20445;-70
2023/02/23 05:02:24;;;;;;;54.67;24.23;;;;;;;8.83;70.17;95838.00;4951258;29;20422;-70
2023/02/23 05:04:50;;;;;;;25.03;20.10;;;;;;;8.86;69.99;95827.44;4951072;29;20183;-70
2023/02/23 05:07:15;;;;;;;30.10;19.77;;;;;;;8.88;69.38;95829.94;4950976;29;20245;-70
2023/02/23 05:09:41;;;;;;;38.33;20.53;;;;;;;8.92;69.80;95833.28;4950699;29;20209;-69
2023/02/23 05:12:06;;;;;;;34.47;21.13;;;;;;;8.85;69.75;95838.78;4950996;29;20281;-71
2023/02/23 05:14:32;;;;;;;30.07;19.80;;;;;;;8.94;69.39;95832.28;4951777;29;20205;-71
2023/02/23 05:16:57;;;;;;;28.10;21.40;;;;;;;8.81;69.95;95834.66;4951568;29;20297;-71
2023/02/23 05:19:23;;;;;;;30.07;21.80;;;;;;;8.86;70.29;95831.81;4952371;29;20345;-71
2023/02/23 05:21:49;;;;;;;25.30;20.80;;;;;;;8.93;69.83;95830.63;4951482;29;20734;-70
2023/02/23 05:24:16;;;;;;;32.93;24.83;;;;;;;8.91;70.22;95832.44;4951356;28;20206;-71
2023/02/23 05:26:42;;;;;;;30.80;22.50;;;;;;;8.84;70.67;95833.66;4950106;29;20170;-70
2023/02/23 05:29:08;;;;;;;32.17;22.57;;;;;;;8.80;70.34;95832.09;4951969;28;20457;-70
2023/02/23 05:31:33;;;;;;;33.77;23.13;;;;;;;8.78;71.22;95823.47;4966474;28;20445;-69
2023/02/23 05:33:59;;;;;;;29.47;22.20;;;;;;;8.88;70.66;95827.34;4970382;28;20283;-69
2023/02/23 05:36:24;;;;;;;32.23;24.00;;;;;;;8.93;70.89;95821.88;4969717;28;20205;-70
2023/02/23 05:38:49;;;;;;;32.97;23.23;;;;;;;8.99;71.09;95832.91;4969821;28;20185;-69
2023/02/23 05:41:18;;;;;;;24.43;20.27;;;;;;;8.84;71.34;95833.66;4969968;28;20647;-69
2023/02/23 05:43:44;;;;;;;33.20;21.10;;;;;;;8.92;70.47;95826.28;4970654;28;20177;-69
2023/02/23 05:46:13;;;;;;;26.07;21.30;;;;;;;8.89;70.22;95829.03;4969590;28;20895;-70
2023/02/23 05:48:39;;;;;;;31.80;21.83;;;;;;;8.92;71.09;95833.28;4969889;28;20594;-71
2023/02/23 05:51:10;;;;;;;38.13;22.50;;;;;;;8.93;70.70;95833.22;4969991;28;20849;-70
2023/02/23 05:53:36;;;;;;;42.27;22.30;;;;;;;9.01;69.91;95828.47;4969855;28;20535;-70
2023/02/23 05:56:03;;;;;;;39.90;22.20;;;;;;;9.01;70.85;95830.25;4969238;28;20433;-69
2023/02/23 05:58:29;;;;;;;38.17;25.10;;;;;;;8.95;70.66;95827.91;4969660;28;20452;-69
2023/02/23 06:00:54;;;;;;;30.10;22.73;;;;;;;8.91;70.78;95840.28;4969634;28;20433;-69
2023/02/23 06:03:21;;;;;;;45.60;21.07;;;;;;;8.92;71.45;95835.91;4969622;28;20631;-69
2023/02/23 06:05:51;;;;;;;29.47;22.57;;;;;;;8.87;70.55;95838.72;4969333;28;20170;-69
2023/02/23 06:08:16;;;;;;;33.13;22.03;;;;;;;8.93;70.37;95838.47;4969521;28;20479;-69
2023/02/23 06:10:42;;;;;;;33.30;22.20;;;;;;;8.94;70.81;95834.06;4969415;28;20477;-69
2023/02/23 06:13:07;;;;;;;34.27;21.53;;;;;;;8.97;70.69;95842.59;4969525;28;20216;-69
2023/02/23 06:15:33;;;;;;;34.67;23.33;;;;;;;8.94;70.59;95834.91;4969217;28;20265;-70
2023/02/23 06:17:58;;;;;;;39.70;21.87;;;;;;;8.92;71.37;95846.38;4969454;28;20169;-70
2023/02/23 06:20:23;;;;;;;33.93;23.10;;;;;;;8.90;71.65;95836.84;4969423;28;20197;-70
2023/02/23 06:22:49;;;;;;;41.83;24.30;;;;;;;8.94;71.78;95845.38;4969026;28;20177;-71
2023/02/23 06:25:14;;;;;;;36.33;22.37;;;;;;;8.93;71.76;95848.06;4969021;28;20208;-69
2023/02/23 06:27:40;;;;;;;78.30;26.90;;;;;;;8.93;71.37;95840.22;4968973;28;20181;-70
2023/02/23 06:30:07;;;;;;;30.73;22.27;;;;;;;8.99;72.39;95843.38;4966333;28;20221;-70
2023/02/23 06:32:32;;;;;;;37.30;22.53;;;;;;;8.95;71.68;95843.59;4968366;28;20451;-70
2023/02/23 06:34:58;;;;;;;39.20;22.63;;;;;;;9.00;71.55;95852.09;4967484;28;20753;-70
2023/02/23 06:37:23;;;;;;;61.00;22.37;;;;;;;8.94;72.40;95853.22;4960575;28;20674;-69
2023/02/23 06:39:49;;;;;;;33.07;21.90;;;;;;;9.05;72.21;95852.75;4968452;28;20208;-70
2023/02/23 06:42:15;;;;;;;31.83;21.30;;;;;;;9.00;72.96;95852.97;4953328;28;20174;-69
2023/02/23 06:44:40;;;;;;;40.10;23.77;;;;;;;9.05;72.19;95853.59;4951704;28;20213;-69
2023/02/23 06:47:06;;;;;;;31.90;22.87;;;;;;;8.98;72.58;95867.03;4962791;28;20259;-70
2023/02/23 06:49:31;;;;;;;33.80;24.27;;;;;;;9.03;72.52;95865.91;4966513;28;20281;-70
2023/02/23 06:51:57;;;;;;;43.53;25.03;;;;;;;9.00;72.88;95871.28;4969797;28;20697;-70
2023/02/23 06:54:23;;;;;;;33.70;21.80;;;;;;;9.06;72.75;95875.38;4962196;28;20192;-70
2023/02/23 06:56:49;;;;;;;29.70;24.27;;;;;;;9.08;72.87;95869.13;4985862;28;20178;-70
2023/02/23 06:59:14;;;;;;;43.57;21.37;;;;;;;9.13;71.84;95868.94;4978561;28;20471;-71
2023/02/23 07:01:43;;;;;;;33.33;23.63;;;;;;;9.04;72.41;95872.81;4975885;28;20533;-72
2023/02/23 07:04:09;;;;;;;31.60;22.47;;;;;;;8.99;73.13;95872.19;4960478;28;20189;-70
2023/02/23 07:06:34;;;;;;;31.67;22.20;;;;;;;9.07;72.63;95877.06;4971177;28;20421;-70
2023/02/23 07:09:00;;;;;;;29.87;22.50;;;;;;;9.07;72.61;95877.94;4971950;28;20517;-69
2023/02/23 07:11:25;;;;;;;34.20;24.20;;;;;;;9.01;72.41;95885.19;4969708;28;20576;-70
2023/02/23 07:13:51;;;;;;;34.80;24.37;;;;;;;9.10;72.48;95885.63;4970563;28;20617;-69
2023/02/23 07:16:16;;;;;;;35.40;24.63;;;;;;;9.16;71.89;95875.78;4969704;28;20261;-70
2023/02/23 07:18:41;;;;;;;33.73;23.07;;;;;;;9.22;72.12;95878.97;4971429;28;20177;-70
2023/02/23 07:21:07;;;;;;;28.60;22.03;;;;;;;9.29;72.07;95879.53;4985913;28;20311;-71
2023/02/23 07:23:33;;;;;;;96.53;29.83;;;;;;;9.30;72.60;95884.69;4968223;28;20187;-71
2023/02/23 07:25:59;;;;;;;44.10;24.50;;;;;;;9.35;71.71;95881.84;4968436;28;20239;-71
2023/02/23 07:28:27;;;;;;;47.07;28.40;;;;;;;9.36;71.58;95882.72;4966390;28;20189;-70
2023/02/23 07:30:57;;;;;;;40.77;25.60;;;;;;;9.38;71.61;95886.97;4968457;28;20540;-70
2023/02/23 07:33:23;;;;;;;37.10;23.10;;;;;;;9.44;72.25;95889.28;4971906;28;20427;-72
2023/02/23 07:35:50;;;;;;;49.83;23.87;;;;;;;9.46;72.04;95879.56;4987752;28;20521;-70
2023/02/23 07:38:15;;;;;;;29.53;23.10;;;;;;;9.44;72.23;95875.34;4988253;28;20906;-71
2023/02/23 07:40:40;;;;;;;30.30;22.77;;;;;;;9.50;72.36;95875.91;4987986;28;20427;-71
2023/02/23 07:43:06;;;;;;;54.17;25.13;;;;;;;9.52;73.06;95886.31;4987929;28;20490;-66
2023/02/23 07:45:32;;;;;;;49.80;26.73;;;;;;;9.58;72.74;95880.75;4984460;28;20917;-71
2023/02/23 07:47:58;;;;;;;32.60;23.13;;;;;;;9.58;72.64;95878.13;4968249;28;20823;-70
2023/02/23 07:50:25;;;;;;;68.03;26.87;;;;;;;9.70;71.68;95879.31;4972190;28;20224;-70
2023/02/23 07:52:51;;;;;;;81.07;29.10;;;;;;;9.72;71.89;95886.16;4972268;28;20850;-70
2023/02/23 07:55:17;;;;;;;47.13;24.30;;;;;;;9.80;71.67;95883.16;4972074;28;20492;-69
2023/02/23 07:57:43;;;;;;;38.10;25.23;;;;;;;9.86;71.97;95885.50;4971432;28;20417;-71
2023/02/23 08:00:10;;;;;;;35.30;23.53;;;;;;;10.04;71.23;95888.13;4971813;28;20491;-70
2023/02/23 08:02:35;;;;;;;33.80;24.03;;;;;;;9.95;72.18;95884.22;4971983;28;20799;-71
2023/02/23 08:05:01;;;;;;;36.13;25.57;;;;;;;10.01;72.21;95883.03;4972178;28;20578;-68
2023/02/23 08:07:27;;;;;;;30.10;23.87;;;;;;;10.03;72.48;95889.91;4972017;28;20737;-71
2023/02/23 08:09:52;;;;;;;29.27;22.53;;;;;;;10.01;72.12;95877.78;4971566;28;20206;-69
2023/02/23 08:12:18;;;;;;;30.73;22.90;;;;;;;10.10;72.21;95890.44;4972697;28;20170;-70
2023/02/23 08:14:44;;;;;;;31.40;24.60;;;;;;;10.08;72.58;95889.66;4972070;28;20173;-71
2023/02/23 08:17:10;;;;;;;35.40;25.60;;;;;;;9.94;72.23;95890.34;4971022;28;20443;-71
2023/02/23 08:19:36;;;;;;;34.17;23.97;;;;;;;9.94;72.66;95886.00;4970407;28;20216;-72
2023/02/23 08:22:02;;;;;;;38.13;24.50;;;;;;;9.96;73.08;95891.13;4971624;28;20497;-71
2023/02/23 08:24:29;;;;;;;30.20;23.20;;;;;;;9.99;73.11;95895.38;4970701;28;20232;-72
2023/02/23 08:26:56;;;;;;;34.57;24.03;;;;;;;9.94;72.76;95901.72;4971687;28;20516;-71
2023/02/23 08:29:21;;;;;;;33.27;25.03;;;;;;;9.94;73.22;95892.97;4970862;28;20453;-69
2023/02/23 08:31:47;;;;;;;32.60;23.53;;;;;;;10.04;73.03;95894.25;4971825;28;20865;-68
2023/02/23 08:34:13;;;;;;;27.37;22.77;;;;;;;9.99;73.39;95900.63;4970465;28;20189;-69
2023/02/23 08:36:39;;;;;;;35.80;24.60;;;;;;;10.04;73.00;95895.97;4967903;28;20189;-72
2023/02/23 08:39:06;;;;;;;38.17;25.07;;;;;;;9.89;74.37;95908.94;4970345;28;20264;-70
2023/02/23 08:41:33;;;;;;;34.83;24.60;;;;;;;10.00;73.57;95900.56;4968833;28;20460;-69
2023/02/23 08:43:58;;;;;;;37.97;23.47;;;;;;;10.03;73.59;95892.53;4986755;28;20966;-72
2023/02/23 08:46:24;;;;;;;67.80;27.30;;;;;;;10.11;73.09;95897.38;4970733;28;20561;-71
2023/02/23 08:48:49;;;;;;;33.70;24.87;;;;;;;10.18;73.02;95901.38;4969492;28;20299;-71
2023/02/23 08:51:15;;;;;;;35.50;23.70;;;;;;;10.13;73.56;95895.53;4970978;28;20272;-71
2023/02/23 08:53:40;;;;;;;32.20;24.30;;;;;;;10.21;72.89;95903.88;4970860;28;20170;-72
2023/02/23 08:56:07;;;;;;;36.70;25.20;;;;;;;10.21;73.27;95897.78;4969827;28;20205;-70
2023/02/23 08:58:34;;;;;;;35.97;25.50;;;;;;;10.15;73.77;95901.56;4970084;28;20236;-71
2023/02/23 09:01:00;;;;;;;32.77;23.00;;;;;;;10.27;73.35;95903.53;4969466;28;20945;-71
2023/02/23 09:03:30;;;;;;;38.80;25.57;;;;;;;10.20;73.74;95903.94;4970717;28;20508;-71
2023/02/23 09:05:57;;;;;;;37.63;25.20;;;;;;;10.24;73.14;95908.97;4970125;28;20409;-71
2023/02/23 09:08:22;;;;;;;36.67;23.23;;;;;;;10.26;72.80;95906.25;4971178;28;20417;-71
2023/02/23 09:10:48;;;;;;;36.63;24.00;;;;;;;10.22;73.48;95900.31;4969728;28;20473;-70
2023/02/23 09:13:14;;;;;;;40.07;23.80;;;;;;;10.17;73.14;95905.78;4969640;28;20209;-72
2023/02/23 09:15:40;;;;;;;33.50;22.40;;;;;;;10.25;72.29;95907.19;4969976;28;20497;-70
2023/02/23 09:18:07;;;;;;;34.13;24.37;;;;;;;10.32;72.26;95901.59;4971565;28;20248;-71
2023/02/23 09:20:33;;;;;;;32.47;24.40;;;;;;;10.40;72.31;95900.34;4970474;28;20433;-70
2023/02/23 09:22:58;;;;;;;34.33;22.83;;;;;;;10.29;72.82;95906.13;4969238;28;20523;-72
2023/02/23 09:25:24;;;;;;;32.23;23.03;;;;;;;10.43;72.22;95903.66;4971112;28;20200;-71
2023/02/23 09:27:55;;;;;;;28.47;21.50;;;;;;;10.33;72.66;95907.69;4970544;28;20205;-70
2023/02/23 09:30:21;;;;;;;32.17;22.17;;;;;;;10.44;72.77;95912.38;4970278;28;20280;-71
2023/02/23 09:32:47;;;;;;;31.23;22.53;;;;;;;10.43;73.11;95905.44;4969352;28;20416;-72
2023/02/23 09:35:17;;;;;;;31.73;23.20;;;;;;;10.60;72.63;95905.41;4964980;28;20437;-70
2023/02/23 09:37:54;;;;;;;30.30;22.23;;;;;;;10.71;72.12;95903.06;4948724;29;20476;-68
2023/02/23 09:40:23;;;;;;;31.43;20.10;;;;;;;10.79;71.20;95911.41;4949997;29;20424;-70
2023/02/23 09:43:11;;;;;;;42.10;22.90;;;;;;;10.75;71.60;95909.88;4962836;28;21245;-71
2023/02/23 09:45:52;;;;;;;28.10;22.60;;;;;;;10.84;71.66;95902.41;4971800;28;20467;-68
2023/02/23 09:48:23;;;;;;;31.60;20.50;;;;;;;10.97;70.66;95900.84;4969508;28;21212;-70
2023/02/23 09:50:51;;;;;;;29.40;20.90;;;;;;;10.98;70.65;95905.16;4968986;28;20473;-71
2023/02/23 09:53:39;;;;;;;32.07;22.50;;;;;;;11.00;71.02;95914.66;4961878;28;20780;-70
2023/02/23 09:56:11;;;;;;;41.07;20.50;;;;;;;11.01;70.91;95908.50;4954651;28;20452;-71
2023/02/23 09:58:38;;;;;;;28.73;20.50;;;;;;;11.19;70.29;95903.16;4969231;28;20535;-71
2023/02/23 10:01:20;;;;;;;37.83;23.30;;;;;;;11.29;70.26;95904.38;4967690;28;20450;-70
2023/02/23 10:03:56;;;;;;;27.80;19.57;;;;;;;11.28;70.16;95912.31;4965646;28;20196;-70
2023/02/23 10:06:22;;;;;;;24.80;19.93;;;;;;;11.33;70.31;95900.63;4962532;28;20425;-69
2023/02/23 10:09:09;;;;;;;48.20;20.77;;;;;;;11.38;70.27;95905.63;4969434;28;20408;-69
2023/02/23 10:11:37;;;;;;;39.03;19.90;;;;;;;11.26;70.82;95906.31;4968890;28;20949;-71
2023/02/23 10:14:29;;;;;;;41.87;22.90;;;;;;;11.29;69.99;95903.50;4969652;28;20413;-69
2023/02/23 10:17:27;;;;;;;27.20;19.20;;;;;;;11.27;70.19;95910.63;4968889;28;20499;-69
2023/02/23 10:20:08;;;;;;;47.77;25.07;;;;;;;11.24;70.33;95901.13;4949697;28;20935;-71
2023/02/23 10:22:34;;;;;;;33.93;20.90;;;;;;;11.35;69.94;95898.78;4949959;28;20406;-71
2023/02/23 10:25:12;;;;;;;27.70;21.00;;;;;;;11.45;69.92;95901.72;4954953;28;20484;-70
2023/02/23 10:27:46;;;;;;;28.97;19.80;;;;;;;11.55;69.71;95899.44;4968837;28;20416;-70
2023/02/23 10:30:23;;;;;;;25.47;19.33;;;;;;;11.71;68.69;95902.91;4968633;28;20602;-72
2023/02/23 10:33:10;;;;;;;28.33;19.67;;;;;;;11.84;68.21;95903.06;4968470;28;20404;-70
2023/02/23 10:35:36;;;;;;;26.47;18.63;;;;;;;11.83;67.79;95906.63;4968825;28;20416;-69
2023/02/23 10:38:02;;;;;;;25.93;19.50;;;;;;;11.94;67.62;95899.00;4968673;28;20846;-70
2023/02/23 10:40:31;;;;;;;22.47;18.53;;;;;;;11.97;66.82;95897.97;4968774;28;20516;-71
2023/02/23 10:42:59;;;;;;;22.33;17.13;;;;;;;11.93;66.59;95902.59;4967830;28;20169;-70
2023/02/23 10:45:27;;;;;;;24.43;18.47;;;;;;;11.98;66.41;95903.16;4968461;28;20420;-70
2023/02/23 10:48:00;;;;;;;28.10;18.03;;;;;;;11.96;66.80;95897.13;4968274;28;20421;-70
2023/02/23 10:50:27;;;;;;;26.50;19.23;;;;;;;12.02;66.95;95898.56;4982759;28;20981;-70
2023/02/23 10:52:59;;;;;;;25.10;18.27;;;;;;;11.97;67.83;95901.44;4968125;28;20523;-69
2023/02/23 10:55:28;;;;;;;25.60;18.93;;;;;;;12.10;66.82;95893.72;4967479;28;20768;-72
2023/02/23 10:58:15;;;;;;;29.57;22.47;;;;;;;12.18;66.31;95888.84;4965771;28;20417;-71
2023/02/23 11:00:57;;;;;;;25.97;19.80;;;;;;;12.21;65.88;95888.69;4949114;28;20454;-71
2023/02/23 11:03:34;;;;;;;27.43;20.40;;;;;;;12.23;66.38;95885.94;4966326;28;20878;-71
2023/02/23 11:06:00;;;;;;;26.67;19.10;;;;;;;12.34;65.32;95886.16;4966373;28;20415;-70
2023/02/23 11:08:28;;;;;;;27.17;20.73;;;;;;;12.43;65.89;95884.78;4968271;28;20906;-70
2023/02/23 11:10:59;;;;;;;36.13;20.53;;;;;;;12.59;64.56;95879.44;4968540;28;20279;-72
2023/02/23 11:13:27;;;;;;;34.40;20.20;;;;;;;12.50;63.52;95868.53;4968777;28;20421;-70
2023/02/23 11:16:18;;;;;;;49.50;22.23;;;;;;;12.62;63.59;95874.84;4987146;28;20415;-70
2023/02/23 11:19:00;;;;;;;27.33;19.73;;;;;;;12.65;64.32;95871.19;4987518;28;20436;-69
2023/02/23 11:21:32;;;;;;;34.70;22.50;;;;;;;12.63;64.00;95871.25;4986672;28;20431;-71
2023/02/23 11:24:11;;;;;;;49.67;21.80;;;;;;;12.67;64.21;95875.41;4968261;28;20420;-70
2023/02/23 11:26:40;;;;;;;39.90;25.40;;;;;;;12.64;64.19;95865.06;4967814;28;20470;-69
2023/02/23 11:29:32;;;;;;;41.80;24.13;;;;;;;12.86;64.21;95872.50;4968087;28;20416;-70
2023/02/23 11:31:59;;;;;;;41.37;22.13;;;;;;;12.87;64.09;95863.69;4949331;28;20425;-71
2023/02/23 11:34:39;;;;;;;120.77;29.07;;;;;;;12.98;62.62;95867.41;4948839;28;20421;-70
2023/02/23 11:37:22;;;;;;;40.77;21.77;;;;;;;13.14;62.94;95855.00;4947817;28;20410;-70
2023/02/23 11:39:57;;;;;;;36.80;20.63;;;;;;;13.17;62.95;95853.94;4968552;28;20942;-68
2023/02/23 11:42:32;;;;;;;25.43;19.50;;;;;;;13.07;62.89;95853.69;4985669;28;20426;-70
2023/02/23 11:45:01;;;;;;;26.80;20.87;;;;;;;13.23;62.70;95854.41;4987211;28;20438;-72
2023/02/23 11:47:27;;;;;;;29.53;20.87;;;;;;;13.12;62.28;95846.34;4987310;28;20480;-68
2023/02/23 11:49:54;;;;;;;23.73;18.43;;;;;;;13.16;61.60;95850.47;4987066;28;20542;-70
2023/02/23 11:52:23;;;;;;;26.03;17.17;;;;;;;13.21;62.16;95853.66;4968967;28;20276;-71
2023/02/23 11:55:01;;;;;;;32.30;18.37;;;;;;;13.35;61.37;95842.28;4968279;28;20559;-70
2023/02/23 11:57:30;;;;;;;32.03;18.50;;;;;;;13.22;61.21;95844.81;4968461;28;20775;-68
2023/02/23 11:59:58;;;;;;;26.30;19.20;;;;;;;13.22;60.38;95843.97;4967276;28;20473;-69
2023/02/23 12:02:26;;;;;;;26.67;18.07;;;;;;;13.28;60.43;95841.81;4967760;28;20424;-70
2023/02/23 12:05:08;;;;;;;29.43;18.30;;;;;;;13.31;60.14;95838.97;4966727;28;21169;-69
2023/02/23 12:07:40;;;;;;;23.80;17.17;;;;;;;13.41;60.16;95833.97;4967667;28;20945;-69
2023/02/23 12:10:21;;;;;;;22.87;15.13;;;;;;;13.34;59.38;95832.66;4967533;28;20495;-69
2023/02/23 12:13:18;;;;;;;24.87;14.37;;;;;;;13.39;59.88;95819.19;4967548;28;20404;-70
2023/02/23 12:16:02;;;;;;;29.70;15.07;;;;;;;13.28;59.06;95823.38;4971796;28;20921;-70
2023/02/23 12:18:36;;;;;;;20.53;13.17;;;;;;;13.63;58.16;95817.63;4967402;28;20417;-72
2023/02/23 12:21:34;;;;;;;21.43;14.03;;;;;;;13.83;57.27;95818.09;4981815;28;20433;-72
2023/02/23 12:24:20;;;;;;;40.33;15.87;;;;;;;13.92;57.67;95817.50;4966513;28;20421;-70
2023/02/23 12:27:11;;;;;;;66.83;20.13;;;;;;;13.94;57.36;95815.59;4966521;28;20570;-69
2023/02/23 12:29:55;;;;;;;108.70;22.70;;;;;;;13.92;56.62;95817.50;4966999;28;20448;-69
2023/02/23 12:32:27;;;;;;;45.50;15.00;;;;;;;13.97;56.23;95812.75;4967222;28;20409;-68
2023/02/23 12:35:12;;;;;;;15.07;10.90;;;;;;;14.38;59.72;95814.38;4967829;28;20467;-67
2023/02/23 12:37:57;;;;;;;49.40;16.40;;;;;;;14.16;56.74;95810.56;4984017;28;20432;-69
2023/02/23 12:40:27;;;;;;;60.13;18.60;;;;;;;14.04;56.64;95805.28;4969422;28;20488;-69
2023/02/23 12:43:10;;;;;;;45.17;18.30;;;;;;;14.15;56.26;95806.25;4977663;28;20516;-69
2023/02/23 12:45:53;;;;;;;37.47;16.03;;;;;;;14.06;56.86;95798.94;4969173;28;20421;-69
2023/02/23 12:48:28;;;;;;;19.63;14.30;;;;;;;13.98;57.18;95799.47;4969447;28;20417;-68
2023/02/23 12:50:57;;;;;;;21.93;14.63;;;;;;;14.12;56.63;95805.59;4971051;28;20457;-68
2023/02/23 12:53:51;;;;;;;19.50;13.27;;;;;;;14.24;56.31;95796.00;4971104;28;20563;-69